createdAt,value
2022-12-18T00:00:14.036Z,101745.72
2022-12-18T00:06:06.375Z,101759.88
2022-12-18T00:11:58.675Z,101739.56
2022-12-18T00:17:51.269Z,101747.59
2022-12-18T00:23:45.145Z,101760.78
2022-12-18T00:29:37.615Z,101752.84
2022-12-18T00:35:30.508Z,101780.13
2022-12-18T00:41:41.705Z,101778.31
2022-12-18T00:47:34.727Z,101787.13
2022-12-18T00:53:27.436Z,101785.38
2022-12-18T00:59:20.197Z,101810.03
2022-12-18T01:05:14.525Z,101819.72
2022-12-18T01:11:11.522Z,101828.53
2022-12-18T01:17:04.893Z,101843.50
2022-12-18T01:22:58.456Z,101844.34
2022-12-18T01:28:51.676Z,101842.63
2022-12-18T01:34:43.807Z,101853.19
2022-12-18T01:40:36.467Z,101845.25
2022-12-18T01:46:29.056Z,101849.66
2022-12-18T01:52:25.107Z,101854.09
2022-12-18T01:58:18.960Z,101854.94
2022-12-18T02:04:24.747Z,101858.50
2022-12-18T02:10:26.896Z,101858.59
2022-12-18T02:16:46.078Z,101859.47
2022-12-18T02:23:09.695Z,101872.66
2022-12-18T02:29:14.276Z,101879.69
2022-12-18T02:35:14.277Z,101881.41
2022-12-18T02:41:07.509Z,101889.31
2022-12-18T02:47:01.736Z,101891.09
2022-12-18T02:53:25.540Z,101888.44
2022-12-18T02:59:35.495Z,101900.00
2022-12-18T03:05:38.446Z,101898.19
2022-12-18T03:11:54.095Z,101892.00
2022-12-18T03:18:00.669Z,101898.22
2022-12-18T03:23:56.735Z,101900.94
2022-12-18T03:30:08.404Z,101906.22
2022-12-18T03:36:03.335Z,101908.03
2022-12-18T03:42:19.625Z,101915.03
2022-12-18T03:48:40.646Z,101915.91
2022-12-18T03:54:37.836Z,101929.16
2022-12-18T04:00:38.694Z,101931.84
2022-12-18T04:06:38.655Z,101947.75
2022-12-18T04:12:31.427Z,101942.41
2022-12-18T04:18:24.675Z,101942.38
2022-12-18T04:24:18.169Z,101960.94
2022-12-18T04:30:19.755Z,101961.78
2022-12-18T04:36:13.603Z,101960.06
2022-12-18T04:42:07.045Z,101967.22
2022-12-18T04:48:00.544Z,101983.06
2022-12-18T04:53:53.316Z,101978.69
2022-12-18T04:59:46.318Z,101988.41
2022-12-18T05:05:39.424Z,101999.00
2022-12-18T05:11:33.175Z,102002.53
2022-12-18T05:17:28.045Z,102006.06
2022-12-18T05:23:21.712Z,102005.19
2022-12-18T05:29:14.434Z,102014.00
2022-12-18T05:35:08.473Z,102015.75
2022-12-18T05:41:03.270Z,102028.09
2022-12-18T05:46:55.423Z,102036.94
2022-12-18T05:52:48.475Z,102032.53
2022-12-18T05:58:41.834Z,102042.22
2022-12-18T06:04:34.544Z,102036.94
2022-12-18T06:10:27.500Z,102050.16
2022-12-18T06:16:20.491Z,102046.63
2022-12-18T06:22:13.503Z,102069.47
2022-12-18T06:28:06.643Z,102064.22
2022-12-18T06:33:59.333Z,102083.56
2022-12-18T06:39:51.474Z,102084.47
2022-12-18T06:45:44.484Z,102096.78
2022-12-18T06:51:36.963Z,102099.44
2022-12-18T06:57:29.254Z,102111.75
2022-12-18T07:03:21.284Z,102120.56
2022-12-18T07:09:13.427Z,102112.66
2022-12-18T07:15:06.214Z,102128.50
2022-12-18T07:20:58.554Z,102141.72
2022-12-18T07:26:50.744Z,102139.94
2022-12-18T07:32:43.624Z,102150.53
2022-12-18T07:38:36.944Z,102152.38
2022-12-18T07:44:29.552Z,102163.78
2022-12-18T07:50:21.554Z,102177.94
2022-12-18T07:56:31.394Z,102148.91
2022-12-18T08:02:23.902Z,102169.19
2022-12-18T08:08:16.266Z,102164.75
2022-12-18T08:14:10.046Z,102177.19
2022-12-18T08:20:03.171Z,102188.69
2022-12-18T08:25:59.346Z,102194.81
2022-12-18T08:31:51.515Z,102203.59
2022-12-18T08:37:44.204Z,102209.84
2022-12-18T08:43:55.310Z,102213.38
2022-12-18T08:49:49.086Z,102213.41
2022-12-18T08:55:43.574Z,102223.13
2022-12-18T09:01:39.959Z,102214.25
2022-12-18T09:07:32.650Z,102218.66
2022-12-18T09:13:24.725Z,102205.41
2022-12-18T09:19:18.040Z,102191.25
2022-12-18T09:25:11.116Z,102196.59
2022-12-18T09:31:08.981Z,102181.56
2022-12-18T09:37:05.976Z,102156.00
2022-12-18T09:43:05.398Z,102157.75
2022-12-18T09:49:04.704Z,102158.63
2022-12-18T09:55:25.471Z,102166.59
2022-12-18T10:01:24.133Z,102165.72
2022-12-18T10:07:51.235Z,102165.63
2022-12-18T10:13:53.736Z,102171.88
2022-12-18T10:19:57.716Z,102174.56
2022-12-18T10:25:56.209Z,102184.25
2022-12-18T10:31:48.704Z,102182.47
2022-12-18T10:38:04.785Z,102155.16
2022-12-18T10:44:13.439Z,102171.00
2022-12-18T10:50:06.643Z,102169.25
2022-12-18T10:56:00.762Z,102162.19
2022-12-18T11:02:03.077Z,102173.69
2022-12-18T11:07:56.166Z,102180.72
2022-12-18T11:14:19.339Z,102187.81
2022-12-18T11:20:37.183Z,102195.75
2022-12-18T11:26:37.504Z,102204.56
2022-12-18T11:32:38.423Z,102210.75
2022-12-18T11:38:31.882Z,102199.28
2022-12-18T11:44:29.774Z,102187.81
2022-12-18T11:50:43.953Z,102171.91
2022-12-18T11:56:45.610Z,102178.97
2022-12-18T12:02:53.313Z,102164.84
2022-12-18T12:09:09.047Z,102170.13
2022-12-18T12:15:24.734Z,102173.63
2022-12-18T12:21:37.087Z,102165.72
2022-12-18T12:27:55.595Z,102164.81
2022-12-18T12:34:12.669Z,102172.78
2022-12-18T12:40:26.728Z,102168.38
2022-12-18T12:46:22.885Z,102167.50
2022-12-18T12:52:45.575Z,102160.44
2022-12-18T12:59:02.830Z,102166.63
2022-12-18T13:05:11.886Z,102178.06
2022-12-18T13:11:23.260Z,102163.91
2022-12-18T13:17:21.228Z,102161.28
2022-12-18T13:23:27.835Z,102170.09
2022-12-18T13:29:42.449Z,102165.66
2022-12-18T13:35:41.404Z,102168.25
2022-12-18T13:41:33.518Z,102183.25
2022-12-18T13:47:38.878Z,102185.03
2022-12-18T13:53:55.839Z,102203.47
2022-12-18T13:59:48.777Z,102195.53
2022-12-18T14:05:43.383Z,102208.66
2022-12-18T14:11:38.720Z,102218.28
2022-12-18T14:17:33.208Z,102224.31
2022-12-18T14:23:38.773Z,102224.31
2022-12-18T14:29:32.498Z,102236.56
2022-12-18T14:35:25.854Z,102246.16
2022-12-18T14:41:21.051Z,102260.94
2022-12-18T14:47:17.980Z,102240.75
2022-12-18T14:53:24.271Z,102246.69
2022-12-18T14:59:25.206Z,102244.94
2022-12-18T15:05:22.926Z,102251.13
2022-12-18T15:11:38.198Z,102235.13
2022-12-18T15:17:32.664Z,102237.59
2022-12-18T15:23:37.336Z,102237.63
2022-12-18T15:29:30.753Z,102242.69
2022-12-18T15:35:25.306Z,102253.38
2022-12-18T15:41:24.542Z,102240.91
2022-12-18T15:47:17.505Z,102224.06
2022-12-18T15:53:10.318Z,102215.22
2022-12-18T15:59:04.251Z,102208.81
2022-12-18T16:04:58.387Z,102207.13
2022-12-18T16:10:51.077Z,102191.19
2022-12-18T16:16:44.276Z,102195.47
2022-12-18T16:22:36.839Z,102189.09
2022-12-18T16:28:28.557Z,102190.69
2022-12-18T16:34:29.873Z,102176.94
2022-12-18T16:40:22.977Z,102182.44
2022-12-18T16:46:15.940Z,102180.19
2022-12-18T16:52:09.479Z,102182.38
2022-12-18T16:58:03.513Z,102189.94
2022-12-18T17:03:58.156Z,102186.84
2022-12-18T17:09:51.496Z,102196.88
2022-12-18T17:15:45.264Z,102207.28
2022-12-18T17:21:38.353Z,102200.19
2022-12-18T17:27:32.314Z,102201.84
2022-12-18T17:33:24.985Z,102202.50
2022-12-18T17:39:19.594Z,102208.50
2022-12-18T17:45:12.016Z,102208.19
2022-12-18T17:51:06.491Z,102207.06
2022-12-18T17:56:58.846Z,102207.91
2022-12-18T18:02:51.246Z,102206.94
2022-12-18T18:08:44.378Z,102207.72
2022-12-18T18:14:36.855Z,102214.59
2022-12-18T18:20:30.735Z,102219.84
2022-12-18T18:26:23.489Z,102199.06
2022-12-18T18:32:19.257Z,102178.09
2022-12-18T18:38:12.205Z,102183.28
2022-12-18T18:44:05.995Z,102180.50
2022-12-18T18:49:58.371Z,102190.72
2022-12-18T18:56:17.237Z,102191.41
2022-12-18T19:02:07.103Z,102202.50
2022-12-18T19:08:00.531Z,102193.22
2022-12-18T19:13:55.566Z,102190.94
2022-12-18T19:19:52.264Z,102202.25
2022-12-18T19:25:45.415Z,102193.28
2022-12-18T19:31:42.006Z,102204.56
2022-12-18T19:37:37.317Z,102185.03
2022-12-18T19:43:30.657Z,102180.84
2022-12-18T19:49:27.207Z,102163.44
2022-12-18T19:55:22.669Z,102183.72
2022-12-18T20:01:19.031Z,102169.03
2022-12-18T20:07:15.176Z,102173.38
2022-12-18T20:13:13.687Z,102169.03
2022-12-18T20:19:12.065Z,102164.47
2022-12-18T20:25:11.064Z,102161.25
2022-12-18T20:31:10.586Z,102170.78
2022-12-18T20:37:07.895Z,102164.56
2022-12-18T20:43:04.116Z,102151.69
2022-12-18T20:48:57.196Z,102165.44
2022-12-18T20:54:50.909Z,102164.34
2022-12-18T21:00:44.666Z,102160.81
2022-12-18T21:06:42.024Z,102163.50
2022-12-18T21:12:42.742Z,102170.41
2022-12-18T21:18:41.326Z,102162.56
2022-12-18T21:24:34.075Z,102166.94
2022-12-18T21:30:27.625Z,102172.25
2022-12-18T21:36:19.814Z,102161.00
2022-12-18T21:42:31.636Z,102151.72
2022-12-18T21:48:24.510Z,102141.56
2022-12-18T21:54:17.612Z,102125.91
2022-12-18T22:00:18.963Z,102109.44
2022-12-18T22:06:13.289Z,102103.72
2022-12-18T22:12:06.246Z,102091.44
2022-12-18T22:18:00.432Z,102101.03
2022-12-18T22:23:58.901Z,102086.13
2022-12-18T22:30:06.757Z,102086.28
2022-12-18T22:35:58.245Z,102083.78
2022-12-18T22:41:51.433Z,102075.78
2022-12-18T22:47:44.682Z,102070.41
2022-12-18T22:53:36.813Z,102055.22
2022-12-18T22:59:29.682Z,102039.13
2022-12-18T23:05:21.936Z,102041.88
2022-12-18T23:11:18.048Z,102030.44
2022-12-18T23:17:10.357Z,102042.97
2022-12-18T23:23:02.726Z,102023.63
2022-12-18T23:28:56.987Z,102021.75
2022-12-18T23:34:49.778Z,102024.22
2022-12-18T23:40:41.937Z,102014.38
2022-12-18T23:46:37.844Z,102012.50
2022-12-18T23:52:29.989Z,101997.38
2022-12-18T23:58:23.668Z,101995.47
